This is the latest recevied weather packets stored in our database for station/object N7IGG. If no packets are shown the sender has not sent any weather packets the latest 1 day(s).
| Time | Temp. | Humidity | Pressure | Rain* | Wind** | Luminosity | Snow |
|---|---|---|---|---|---|---|---|
| 1778024899 | 16.67° C | 78% | 1015.8 hPa | 0 mm | 1.79 m/s, 221° | 446 W/m² | - |
| 1778024596 | 16.67° C | 78% | 1015.7 hPa | 0 mm | 1.34 m/s, 108° | 433 W/m² | - |
| 1778024293 | 16.67° C | 77% | 1015.7 hPa | 0 mm | 3.13 m/s, 201° | 454 W/m² | - |
| 1778023991 | 17.22° C | 78% | 1015.8 hPa | 0 mm | 0.89 m/s, 151° | 484 W/m² | - |
| 1778023688 | 16.67° C | 76% | 1015.9 hPa | 0 mm | 2.68 m/s, 209° | 390 W/m² | - |
| 1778023385 | 16.67° C | 78% | 1015.9 hPa | 0 mm | 0.89 m/s, 194° | 531 W/m² | - |
| 1778023082 | 16.11° C | 80% | 1016 hPa | 0 mm | 2.68 m/s, 197° | 492 W/m² | - |
| 1778022780 | 16.11° C | 79% | 1016.1 hPa | 0 mm | 0.89 m/s, 147° | 339 W/m² | - |
| 1778022478 | 16.67° C | 79% | 1015.9 hPa | 0 mm | 0.45 m/s, 126° | 416 W/m² | - |
| 1778022175 | 16.67° C | 80% | 1015.9 hPa | 0 mm | 0.89 m/s, 168° | 269 W/m² | - |
| 1778021872 | 16.11° C | 80% | 1016.1 hPa | 0 mm | 1.79 m/s, 191° | 259 W/m² | - |
| 1778021569 | 15.56° C | 80% | 1016.2 hPa | 0 mm | 1.34 m/s, 188° | 243 W/m² | - |
| 1778021263 | 16.11° C | 81% | 1016.1 hPa | 0 mm | 0.89 m/s, 148° | 223 W/m² | - |
| 1778020962 | 15.56° C | 80% | 1016.3 hPa | 0 mm | 2.68 m/s, 215° | 256 W/m² | - |
| 1778020659 | 15.56° C | 81% | 1016.1 hPa | 0 mm | 1.79 m/s, 192° | 220 W/m² | - |
| 1778020355 | 15.56° C | 81% | 1016.3 hPa | 0 mm | 0.89 m/s, 148° | 214 W/m² | - |
| 1778020051 | 15.56° C | 81% | 1016.5 hPa | 0 mm | 2.68 m/s, 200° | 225 W/m² | - |
| 1778019747 | 15.56° C | 81% | 1016.5 hPa | 0 mm | 2.24 m/s, 209° | 198 W/m² | - |
| 1778019445 | 15.56° C | 82% | 1016.4 hPa | 0 mm | 1.79 m/s, 194° | 209 W/m² | - |
| 1778019141 | 15.56° C | 81% | 1016.4 hPa | 0 mm | 2.24 m/s, 198° | 212 W/m² | - |
| 1778018838 | 15° C | 82% | 1016.4 hPa | 0 mm | 1.34 m/s, 129° | 191 W/m² | - |
| 1778018536 | 15.56° C | 82% | 1016.6 hPa | 0 mm | 1.34 m/s, 180° | 174 W/m² | - |
| 1778018234 | 15.56° C | 82% | 1016.5 hPa | 0 mm | 0.89 m/s, 190° | 177 W/m² | - |
| 1778017931 | 15° C | 82% | 1016.6 hPa | 0 mm | 1.34 m/s, 195° | 185 W/m² | - |
| 1778017629 | 15.56° C | 82% | 1016.9 hPa | 0 mm | 1.34 m/s, 209° | 182 W/m² | - |
* Rain latest hour (hover to see other rain measurements)
** Current wind speed in m/s (hover to see current wind gust speed)